Time;durP1;ratioP1;P1;durP2;ratioP2;P2;SDS_P1;SDS_P2;PMS_P1;PMS_P2;Temp;Humidity;BMP_temperature;BMP_pressure;BME280_temperature;BME280_humidity;BME280_pressure;Samples;Min_cycle;Max_cycle;Signal;HPM_P1;HPM_P2
2022/03/25 00:00:12;;;;;;;56.45;34.22;;;5.10;99.90;;;;;;6267123;22;20022;-60
2022/03/25 00:02:39;;;;;;;56.75;33.17;;;5.00;99.90;;;;;;6267488;22;20395;-60
2022/03/25 00:05:06;;;;;;;55.78;34.85;;;5.00;99.90;;;;;;6267221;22;20077;-57
2022/03/25 00:07:32;;;;;;;57.90;33.80;;;5.00;99.90;;;;;;6267234;22;20454;-65
2022/03/25 00:09:59;;;;;;;61.88;35.80;;;5.00;99.90;;;;;;6266593;22;20031;-58
2022/03/25 00:12:26;;;;;;;56.90;32.28;;;5.00;99.90;;;;;;6268169;22;20020;-61
2022/03/25 00:14:52;;;;;;;61.17;34.83;;;4.90;99.90;;;;;;6267397;22;20354;-57
2022/03/25 00:17:18;;;;;;;56.72;32.45;;;4.90;99.90;;;;;;6240159;22;20020;-61
2022/03/25 00:19:43;;;;;;;55.38;32.50;;;4.80;99.90;;;;;;6239937;22;20023;-58
2022/03/25 00:22:09;;;;;;;79.18;35.17;;;4.80;99.90;;;;;;6267440;22;20023;-62
2022/03/25 00:24:35;;;;;;;65.80;33.13;;;5.10;99.90;;;;;;6267337;22;20020;-58
2022/03/25 00:27:00;;;;;;;62.70;32.63;;;4.80;99.90;;;;;;6267163;22;20338;-60
2022/03/25 00:29:26;;;;;;;54.15;31.52;;;4.60;99.90;;;;;;6267590;22;20023;-60
2022/03/25 00:31:52;;;;;;;59.63;32.80;;;4.70;99.90;;;;;;6266724;22;20089;-66
2022/03/25 00:34:18;;;;;;;96.35;33.35;;;4.60;99.90;;;;;;6267555;22;20342;-69
2022/03/25 00:36:44;;;;;;;56.05;31.15;;;4.50;99.90;;;;;;6264073;22;20019;-62
2022/03/25 00:39:10;;;;;;;50.45;31.38;;;4.70;99.90;;;;;;6266227;22;20020;-57
2022/03/25 00:41:36;;;;;;;54.42;31.95;;;4.50;99.90;;;;;;6266831;22;20622;-61
2022/03/25 00:44:05;;;;;;;55.50;32.72;;;4.50;99.90;;;;;;6266791;22;20027;-58
2022/03/25 00:46:31;;;;;;;61.22;34.13;;;4.50;99.90;;;;;;6266877;22;20028;-58
2022/03/25 00:48:56;;;;;;;61.03;35.67;;;4.50;99.90;;;;;;6266170;22;20081;-58
2022/03/25 00:51:22;;;;;;;56.65;33.53;;;4.50;99.90;;;;;;6266933;22;20426;-61
2022/03/25 00:53:48;;;;;;;62.13;32.90;;;4.50;99.90;;;;;;6268123;22;20630;-61
2022/03/25 00:56:14;;;;;;;56.10;33.47;;;4.50;99.90;;;;;;6267428;22;20477;-57
2022/03/25 00:58:39;;;;;;;62.15;35.55;;;4.50;99.90;;;;;;6266446;22;20095;-57
2022/03/25 01:01:05;;;;;;;56.53;33.50;;;4.40;99.90;;;;;;6266430;22;20094;-57
2022/03/25 01:03:35;;;;;;;56.00;33.95;;;4.40;99.90;;;;;;6238473;22;20098;-57
2022/03/25 01:06:01;;;;;;;56.42;32.03;;;4.40;99.90;;;;;;6266449;22;20023;-65
2022/03/25 01:08:27;;;;;;;58.55;33.83;;;4.30;99.90;;;;;;6266778;22;20022;-56
2022/03/25 01:10:53;;;;;;;56.45;33.35;;;4.30;99.90;;;;;;6265846;22;20015;-58
2022/03/25 01:13:19;;;;;;;54.75;33.03;;;4.30;99.90;;;;;;6266140;22;20027;-59
2022/03/25 01:15:45;;;;;;;62.10;35.22;;;4.20;99.90;;;;;;6267083;22;20065;-58
2022/03/25 01:18:10;;;;;;;55.80;33.55;;;4.20;99.90;;;;;;6266786;22;20020;-58
2022/03/25 01:20:36;;;;;;;58.70;33.30;;;4.20;99.90;;;;;;6266038;22;20062;-57
2022/03/25 01:23:03;;;;;;;59.05;33.63;;;4.10;99.90;;;;;;6266780;22;20038;-57
2022/03/25 01:25:28;;;;;;;59.60;33.00;;;4.10;99.90;;;;;;6266274;22;20023;-57
2022/03/25 01:27:54;;;;;;;61.72;35.00;;;4.10;99.90;;;;;;6266350;22;20038;-58
2022/03/25 01:30:20;;;;;;;62.35;33.92;;;4.10;99.90;;;;;;6266530;22;20091;-57
2022/03/25 01:32:46;;;;;;;60.45;32.30;;;4.10;99.90;;;;;;6266510;22;20058;-57
2022/03/25 01:35:12;;;;;;;58.13;32.15;;;4.00;99.90;;;;;;6266257;22;20031;-65
2022/03/25 01:37:38;;;;;;;59.22;33.45;;;3.90;99.90;;;;;;6266736;22;20023;-57
2022/03/25 01:40:09;;;;;;;53.58;31.98;;;4.00;99.90;;;;;;6266276;22;20450;-63
2022/03/25 01:42:41;;;;;;;56.75;33.13;;;3.90;99.90;;;;;;6239658;22;20020;-59
2022/03/25 01:45:09;;;;;;;60.70;33.58;;;3.90;99.90;;;;;;6238447;22;20115;-60
2022/03/25 01:47:35;;;;;;;53.38;31.73;;;3.90;99.90;;;;;;6266224;22;20023;-64
2022/03/25 01:50:02;;;;;;;57.00;32.15;;;3.90;99.90;;;;;;6266282;22;20047;-58
2022/03/25 01:52:29;;;;;;;50.78;31.35;;;3.80;99.90;;;;;;6267165;22;20462;-62
2022/03/25 01:55:12;;;;;;;47.00;28.50;;;3.80;99.90;;;;;;6268217;22;20024;-59
2022/03/25 01:57:38;;;;;;;46.50;29.10;;;3.80;99.90;;;;;;6268617;22;20087;-60
2022/03/25 02:00:06;;;;;;;50.95;28.92;;;3.70;99.90;;;;;;6268475;22;20614;-57
2022/03/25 02:02:32;;;;;;;47.90;29.45;;;3.70;99.90;;;;;;6268686;22;20095;-56
2022/03/25 02:04:59;;;;;;;54.80;29.98;;;3.70;99.90;;;;;;6268473;22;20134;-58
2022/03/25 02:07:25;;;;;;;51.35;30.25;;;3.60;99.90;;;;;;6269163;22;20034;-56
2022/03/25 02:09:51;;;;;;;49.05;29.20;;;3.80;99.90;;;;;;6268106;22;20373;-59
2022/03/25 02:12:17;;;;;;;48.67;28.92;;;3.50;99.90;;;;;;6268737;22;20020;-57
2022/03/25 02:14:43;;;;;;;50.40;30.38;;;3.50;99.90;;;;;;6241453;22;20130;-57
2022/03/25 02:17:09;;;;;;;51.92;29.73;;;3.50;99.90;;;;;;6268745;22;20055;-57
2022/03/25 02:19:34;;;;;;;52.33;30.73;;;3.50;99.90;;;;;;6268244;22;20249;-57
2022/03/25 02:22:00;;;;;;;51.30;30.95;;;3.40;99.90;;;;;;6268630;22;20020;-56
2022/03/25 02:24:25;;;;;;;58.33;31.63;;;3.40;99.90;;;;;;6268465;22;20027;-65
2022/03/25 02:26:52;;;;;;;54.72;32.95;;;3.40;99.90;;;;;;6268098;22;20038;-61
2022/03/25 02:29:17;;;;;;;46.22;28.17;;;3.30;99.90;;;;;;6268359;22;20050;-62
2022/03/25 02:31:43;;;;;;;54.33;31.23;;;3.30;99.90;;;;;;6267890;22;20069;-65
2022/03/25 02:34:10;;;;;;;58.40;31.90;;;3.30;99.90;;;;;;6240704;22;20379;-61
2022/03/25 02:36:40;;;;;;;51.45;30.00;;;3.20;99.90;;;;;;6267685;22;20098;-64
2022/03/25 02:39:06;;;;;;;52.67;30.38;;;3.20;99.90;;;;;;6268795;22;20057;-65
2022/03/25 02:41:32;;;;;;;49.95;31.02;;;3.20;99.90;;;;;;6237161;22;20016;-62
2022/03/25 02:43:59;;;;;;;53.45;31.27;;;3.10;99.90;;;;;;6240771;22;20091;-65
2022/03/25 02:46:25;;;;;;;56.30;32.38;;;3.10;99.90;;;;;;6268375;22;20007;-69
2022/03/25 02:48:51;;;;;;;50.00;30.02;;;3.10;99.90;;;;;;6268095;22;20390;-58
2022/03/25 02:51:16;;;;;;;60.15;34.13;;;3.20;99.90;;;;;;6268121;22;20031;-59
2022/03/25 02:53:42;;;;;;;62.30;33.70;;;3.00;99.90;;;;;;6268390;22;20089;-68
2022/03/25 02:56:08;;;;;;;52.55;29.15;;;3.00;99.90;;;;;;6268296;22;20058;-65
2022/03/25 02:58:33;;;;;;;61.30;33.35;;;4.50;99.90;;;;;;6268362;22;20020;-67
2022/03/25 03:00:59;;;;;;;55.13;30.92;;;3.00;99.90;;;;;;6267601;22;20012;-64
2022/03/25 03:03:25;;;;;;;61.33;34.28;;;3.00;99.90;;;;;;6268516;22;20438;-60
2022/03/25 03:05:50;;;;;;;55.35;32.42;;;2.90;99.90;;;;;;6241082;22;20023;-57
2022/03/25 03:08:16;;;;;;;60.60;34.53;;;2.90;99.90;;;;;;6267981;22;20019;-57
2022/03/25 03:10:42;;;;;;;61.85;35.58;;;2.90;99.90;;;;;;6267859;22;20020;-61
2022/03/25 03:13:09;;;;;;;61.85;33.08;;;2.90;99.90;;;;;;6268029;22;20819;-60
2022/03/25 03:15:36;;;;;;;66.53;33.88;;;2.90;99.90;;;;;;6268802;22;20039;-65
2022/03/25 03:18:02;;;;;;;60.55;35.47;;;2.90;99.90;;;;;;6268542;22;20085;-60
2022/03/25 03:20:28;;;;;;;55.53;33.85;;;2.90;99.90;;;;;;6264062;22;20016;-61
2022/03/25 03:22:56;;;;;;;61.28;35.42;;;2.90;99.90;;;;;;6266450;22;20091;-58
2022/03/25 03:25:22;;;;;;;59.30;34.13;;;2.90;99.90;;;;;;6266484;22;20055;-57
2022/03/25 03:27:48;;;;;;;60.53;34.30;;;2.80;99.90;;;;;;6267853;22;20047;-56
2022/03/25 03:30:14;;;;;;;55.38;32.95;;;2.80;99.90;;;;;;6267182;22;20031;-57
2022/03/25 03:32:40;;;;;;;66.05;35.58;;;2.80;99.90;;;;;;6267219;22;20016;-58
2022/03/25 03:35:07;;;;;;;58.83;33.30;;;2.80;99.90;;;;;;6268260;22;20099;-57
2022/03/25 03:37:40;;;;;;;62.65;33.65;;;2.80;99.90;;;;;;6267284;22;20020;-57
2022/03/25 03:40:07;;;;;;;60.58;34.22;;;2.80;99.90;;;;;;6267636;22;20376;-58
2022/03/25 03:42:32;;;;;;;61.67;35.25;;;2.70;99.90;;;;;;6240129;22;20023;-61
2022/03/25 03:44:58;;;;;;;55.88;32.40;;;2.70;99.90;;;;;;6267291;22;20446;-57
2022/03/25 03:47:24;;;;;;;60.88;35.25;;;2.70;99.90;;;;;;6266925;22;20026;-63
2022/03/25 03:49:50;;;;;;;59.72;34.90;;;2.70;99.90;;;;;;6266563;22;20394;-58
2022/03/25 03:52:15;;;;;;;64.85;35.53;;;2.70;99.90;;;;;;6267692;22;20049;-57
2022/03/25 03:54:41;;;;;;;59.10;33.55;;;3.20;99.90;;;;;;6266746;22;20519;-62
2022/03/25 03:57:09;;;;;;;57.28;32.72;;;2.70;99.90;;;;;;6266404;22;20012;-60
2022/03/25 03:59:35;;;;;;;61.30;33.72;;;2.60;99.90;;;;;;6266961;22;20058;-59
2022/03/25 04:02:03;;;;;;;55.60;33.67;;;2.60;99.90;;;;;;6266629;22;20015;-60
2022/03/25 04:04:28;;;;;;;66.53;34.25;;;2.50;99.90;;;;;;6266598;22;20531;-57
2022/03/25 04:06:54;;;;;;;64.85;34.50;;;2.60;99.90;;;;;;6240170;22;20024;-60
2022/03/25 04:09:20;;;;;;;59.22;34.03;;;2.50;99.90;;;;;;6239848;22;20138;-60
2022/03/25 04:11:45;;;;;;;58.75;32.97;;;2.50;99.90;;;;;;6267845;22;20016;-60
2022/03/25 04:14:11;;;;;;;61.33;35.53;;;2.50;99.90;;;;;;6267105;22;20375;-60
2022/03/25 04:16:37;;;;;;;59.45;35.70;;;2.50;99.90;;;;;;6267508;22;20022;-60
2022/03/25 04:19:03;;;;;;;63.72;34.03;;;2.50;99.90;;;;;;6267046;22;20026;-60
2022/03/25 04:21:29;;;;;;;64.20;34.45;;;2.50;99.90;;;;;;6267428;22;20117;-60
2022/03/25 04:23:55;;;;;;;64.40;34.03;;;2.50;99.90;;;;;;6266934;22;20023;-60
2022/03/25 04:26:21;;;;;;;57.55;31.45;;;2.50;99.90;;;;;;6266811;22;20086;-60
2022/03/25 04:28:46;;;;;;;58.17;32.85;;;2.20;99.90;;;;;;6267655;22;20094;-57
2022/03/25 04:31:12;;;;;;;59.42;33.38;;;2.50;99.90;;;;;;6266888;22;20096;-57
2022/03/25 04:33:38;;;;;;;60.83;31.98;;;2.40;99.90;;;;;;6267516;22;20073;-57
2022/03/25 04:36:04;;;;;;;60.13;34.40;;;2.40;99.90;;;;;;6267638;22;20489;-64
2022/03/25 04:38:29;;;;;;;58.50;32.08;;;2.40;99.90;;;;;;6267265;22;20027;-57
2022/03/25 04:40:55;;;;;;;60.67;30.67;;;2.40;99.90;;;;;;6267675;22;20015;-60
2022/03/25 04:43:21;;;;;;;52.10;29.83;;;2.30;99.90;;;;;;6267561;22;20020;-59
2022/03/25 04:45:47;;;;;;;57.25;30.35;;;2.30;99.90;;;;;;6267143;22;20634;-63
2022/03/25 04:48:14;;;;;;;53.38;30.10;;;2.40;99.90;;;;;;6266895;22;20016;-61
2022/03/25 04:50:40;;;;;;;54.83;31.25;;;2.30;99.90;;;;;;6267622;22;20024;-57
2022/03/25 04:53:06;;;;;;;57.63;31.88;;;1.40;99.90;;;;;;6268017;22;20067;-57
2022/03/25 04:55:32;;;;;;;55.80;31.05;;;2.30;99.90;;;;;;6267681;22;20020;-57
2022/03/25 04:57:57;;;;;;;54.28;30.23;;;2.30;99.90;;;;;;6267254;22;20020;-58
2022/03/25 05:00:23;;;;;;;52.17;29.95;;;2.30;99.90;;;;;;6267531;22;20038;-57
2022/03/25 05:02:49;;;;;;;52.10;30.10;;;2.20;99.90;;;;;;6267550;22;20020;-57
2022/03/25 05:05:15;;;;;;;58.47;30.55;;;2.20;99.90;;;;;;6267473;22;20094;-57
2022/03/25 05:07:46;;;;;;;54.47;28.77;;;2.20;99.90;;;;;;6267942;22;20058;-57
2022/03/25 05:10:13;;;;;;;55.15;27.98;;;2.20;99.90;;;;;;6267165;22;20020;-56
2022/03/25 05:12:40;;;;;;;58.45;29.40;;;2.20;99.90;;;;;;6267168;22;20093;-57
2022/03/25 05:15:06;;;;;;;54.15;29.30;;;2.20;99.90;;;;;;6267409;22;20784;-56
2022/03/25 05:17:32;;;;;;;54.95;29.02;;;2.20;99.90;;;;;;6267558;22;20400;-56
2022/03/25 05:19:58;;;;;;;51.45;28.63;;;2.10;99.90;;;;;;6266910;22;20020;-58
2022/03/25 05:22:25;;;;;;;50.88;27.65;;;2.10;99.90;;;;;;6267359;22;20020;-57
2022/03/25 05:24:51;;;;;;;50.28;26.80;;;2.10;99.90;;;;;;6239556;22;20070;-56
2022/03/25 05:27:16;;;;;;;46.60;28.02;;;2.10;99.90;;;;;;6266554;22;20020;-57
2022/03/25 05:29:42;;;;;;;51.08;28.00;;;2.10;99.90;;;;;;6268352;22;20020;-57
2022/03/25 05:32:09;;;;;;;49.78;27.23;;;2.10;99.90;;;;;;6269151;22;20024;-57
2022/03/25 05:34:35;;;;;;;48.25;27.85;;;2.10;99.90;;;;;;6269213;22;20020;-57
2022/03/25 05:37:01;;;;;;;44.72;25.95;;;2.10;99.90;;;;;;6268792;22;20473;-62
2022/03/25 05:39:27;;;;;;;56.05;30.50;;;2.10;99.90;;;;;;6269470;22;20016;-63
2022/03/25 05:41:53;;;;;;;50.35;28.33;;;2.10;99.90;;;;;;6268667;22;20616;-59
2022/03/25 05:44:18;;;;;;;50.83;29.30;;;2.10;99.90;;;;;;6268876;22;20024;-61
2022/03/25 05:46:44;;;;;;;53.28;29.13;;;2.10;99.90;;;;;;6241153;22;20057;-60
2022/03/25 05:49:10;;;;;;;49.35;28.42;;;2.20;99.90;;;;;;6242060;22;20027;-58
2022/03/25 05:51:35;;;;;;;50.70;26.33;;;2.20;99.90;;;;;;6269197;22;20019;-57
2022/03/25 05:54:01;;;;;;;44.15;26.30;;;2.20;99.90;;;;;;6241838;22;20118;-57
2022/03/25 05:56:27;;;;;;;47.17;27.38;;;2.80;99.90;;;;;;6268942;22;20024;-57
2022/03/25 05:58:53;;;;;;;55.00;30.13;;;2.30;99.90;;;;;;6268345;22;20059;-57
2022/03/25 06:01:19;;;;;;;57.95;29.83;;;0.50;99.90;;;;;;6268905;22;20338;-57
2022/03/25 06:03:44;;;;;;;61.50;32.65;;;2.50;99.90;;;;;;6268957;22;20024;-57
2022/03/25 06:06:10;;;;;;;59.60;30.77;;;2.70;99.90;;;;;;6262659;22;20011;-57
2022/03/25 06:08:36;;;;;;;54.92;32.08;;;2.80;99.90;;;;;;6264516;22;20028;-57
2022/03/25 06:11:02;;;;;;;60.45;31.92;;;2.90;99.90;;;;;;6262538;22;20016;-58
2022/03/25 06:13:28;;;;;;;59.17;30.60;;;3.30;99.90;;;;;;6267575;22;20016;-57
2022/03/25 06:15:54;;;;;;;65.68;32.65;;;3.30;99.90;;;;;;6239112;22;20020;-57
2022/03/25 06:18:21;;;;;;;57.38;32.40;;;4.40;99.90;;;;;;6266687;22;20081;-61
2022/03/25 06:20:47;;;;;;;57.35;30.77;;;3.20;99.90;;;;;;6266098;22;20494;-58
2022/03/25 06:23:13;;;;;;;62.13;34.13;;;3.30;99.90;;;;;;6266693;22;20102;-60
2022/03/25 06:25:39;;;;;;;59.80;35.00;;;3.50;99.90;;;;;;6238350;22;20020;-66
2022/03/25 06:28:06;;;;;;;60.17;34.50;;;3.70;99.90;;;;;;6266408;22;20439;-64
2022/03/25 06:30:34;;;;;;;63.58;34.22;;;3.60;99.90;;;;;;6265773;22;20016;-60
2022/03/25 06:33:05;;;;;;;61.25;33.05;;;3.70;99.90;;;;;;6266427;22;20016;-66
2022/03/25 06:35:30;;;;;;;63.25;33.83;;;3.80;99.90;;;;;;6266209;22;20547;-69
2022/03/25 06:37:57;;;;;;;64.78;35.20;;;4.00;99.90;;;;;;6240192;22;20019;-61
2022/03/25 06:40:25;;;;;;;63.67;36.05;;;4.10;99.90;;;;;;6265555;22;20334;-61
2022/03/25 06:42:56;;;;;;;68.15;35.63;;;4.30;99.90;;;;;;6266206;22;20454;-68
2022/03/25 06:45:23;;;;;;;61.40;35.58;;;4.40;99.90;;;;;;6267485;22;20020;-66
2022/03/25 06:47:49;;;;;;;66.97;36.03;;;4.60;99.90;;;;;;6266660;22;20019;-62
2022/03/25 06:50:16;;;;;;;61.17;34.92;;;4.70;99.90;;;;;;6266968;22;20520;-69
2022/03/25 06:52:42;;;;;;;70.10;36.88;;;4.90;99.90;;;;;;6265523;22;20094;-69
2022/03/25 06:55:09;;;;;;;61.60;33.90;;;5.10;99.90;;;;;;6268291;22;20472;-57
2022/03/25 06:57:35;;;;;;;65.13;34.17;;;5.30;99.90;;;;;;6267980;22;20019;-67
2022/03/25 07:00:02;;;;;;;73.93;38.25;;;5.40;99.90;;;;;;6266070;22;20077;-68
2022/03/25 07:02:28;;;;;;;64.18;35.40;;;5.90;99.90;;;;;;6265254;22;20528;-71
2022/03/25 07:04:54;;;;;;;63.88;35.97;;;5.80;99.90;;;;;;6267110;22;20020;-71
2022/03/25 07:07:26;;;;;;;59.47;33.97;;;5.90;99.90;;;;;;6267305;22;20445;-57
2022/03/25 07:09:53;;;;;;;63.47;33.70;;;6.10;99.90;;;;;;6267052;22;20903;-60
2022/03/25 07:12:19;;;;;;;59.13;34.17;;;6.40;99.90;;;;;;6267142;22;20358;-58
2022/03/25 07:14:45;;;;;;;61.38;33.20;;;6.70;99.90;;;;;;6241006;22;20029;-59
2022/03/25 07:17:11;;;;;;;63.72;34.58;;;6.90;99.90;;;;;;6268182;22;20107;-57
2022/03/25 07:19:37;;;;;;;60.92;33.92;;;7.00;99.90;;;;;;6240778;22;20024;-60
2022/03/25 07:22:03;;;;;;;61.03;34.53;;;7.20;99.90;;;;;;6267872;22;20515;-64
2022/03/25 07:24:29;;;;;;;58.22;33.28;;;7.40;99.90;;;;;;6267783;22;20035;-57
2022/03/25 07:26:55;;;;;;;54.70;32.35;;;7.70;99.90;;;;;;6267765;22;20019;-67
2022/03/25 07:29:21;;;;;;;54.45;32.13;;;8.00;99.90;;;;;;6267686;22;20015;-62
2022/03/25 07:31:47;;;;;;;56.60;29.50;;;8.20;99.90;;;;;;6265756;22;20124;-63
2022/03/25 07:34:12;;;;;;;47.70;27.73;;;8.30;99.90;;;;;;6265286;22;20023;-69
2022/03/25 07:36:38;;;;;;;51.40;28.90;;;8.70;99.90;;;;;;6267376;22;20015;-74
2022/03/25 07:39:04;;;;;;;49.72;29.70;;;8.90;99.90;;;;;;6267284;22;20122;-61
2022/03/25 07:41:29;;;;;;;54.60;31.92;;;9.20;99.90;;;;;;6267148;22;20012;-66
2022/03/25 07:43:55;;;;;;;49.08;29.00;;;9.40;99.90;;;;;;6239778;22;20031;-64
2022/03/25 07:46:23;;;;;;;47.28;27.33;;;9.70;99.90;;;;;;6240280;22;20073;-61
2022/03/25 07:48:49;;;;;;;41.55;25.58;;;10.00;99.90;;;;;;6267613;22;20023;-58
2022/03/25 07:51:15;;;;;;;43.50;27.75;;;10.20;99.90;;;;;;6267239;22;20120;-60
2022/03/25 07:53:41;;;;;;;43.80;26.63;;;10.40;99.90;;;;;;6267186;22;20442;-67
2022/03/25 07:56:06;;;;;;;43.50;26.77;;;10.60;99.90;;;;;;6267676;22;20018;-72
2022/03/25 07:58:32;;;;;;;47.05;27.13;;;11.00;99.90;;;;;;6267576;22;20346;-72
2022/03/25 08:00:58;;;;;;;41.00;26.55;;;11.10;99.90;;;;;;6267247;22;20069;-57
2022/03/25 08:03:23;;;;;;;41.20;25.27;;;11.50;99.90;;;;;;6267313;22;20077;-69
2022/03/25 08:05:51;;;;;;;48.30;24.48;;;11.70;99.90;;;;;;6267017;22;20469;-61
2022/03/25 08:08:19;;;;;;;36.97;22.85;;;12.00;99.90;;;;;;6266656;22;20582;-58
2022/03/25 08:10:46;;;;;;;37.35;21.95;;;12.00;99.90;;;;;;6267334;22;20456;-69
2022/03/25 08:13:12;;;;;;;37.42;23.58;;;12.30;99.90;;;;;;6239360;22;20020;-57
2022/03/25 08:15:38;;;;;;;34.65;22.05;;;12.20;99.90;;;;;;6267107;22;20016;-58
2022/03/25 08:18:13;;;;;;;34.83;22.02;;;12.40;99.90;;;;;;6240323;22;20016;-58
2022/03/25 08:20:43;;;;;;;34.47;21.75;;;12.70;99.90;;;;;;6267472;22;20019;-63
2022/03/25 08:23:13;;;;;;;34.05;21.95;;;12.80;99.90;;;;;;6267027;22;20020;-64
2022/03/25 08:28:26;;;;;;;32.83;21.40;;;13.10;99.90;;;;;;6267261;22;20047;-57
2022/03/25 08:30:52;;;;;;;34.35;21.55;;;13.40;99.90;;;;;;6263521;22;20027;-58
2022/03/25 08:33:19;;;;;;;30.50;20.25;;;13.50;99.90;;;;;;6264713;22;20020;-61
2022/03/25 08:35:47;;;;;;;33.20;22.13;;;14.20;99.90;;;;;;6264343;22;20354;-62
2022/03/25 08:38:13;;;;;;;26.30;18.85;;;14.40;99.90;;;;;;6264719;22;20027;-58
2022/03/25 08:40:39;;;;;;;32.75;19.88;;;14.60;99.90;;;;;;6237583;22;20020;-58
2022/03/25 08:43:06;;;;;;;27.58;19.45;;;15.00;99.90;;;;;;6263465;22;20019;-60
2022/03/25 08:45:32;;;;;;;27.08;18.95;;;15.20;99.90;;;;;;6263948;22;20008;-57
2022/03/25 08:47:59;;;;;;;32.10;18.13;;;15.70;99.90;;;;;;6264178;22;20026;-57
2022/03/25 08:50:25;;;;;;;28.42;18.23;;;16.30;99.90;;;;;;6237091;22;20458;-58
2022/03/25 08:52:52;;;;;;;26.95;17.77;;;16.50;99.90;;;;;;6263308;22;20346;-57
2022/03/25 08:55:19;;;;;;;27.10;18.63;;;16.50;99.90;;;;;;6263831;22;20615;-57
2022/03/25 08:57:46;;;;;;;26.90;16.52;;;16.30;99.90;;;;;;6264601;22;20069;-57
2022/03/25 09:00:15;;;;;;;25.10;17.17;;;16.10;99.90;;;;;;6263539;22;20454;-57
2022/03/25 09:02:43;;;;;;;24.60;15.85;;;16.10;99.90;;;;;;6264340;22;20031;-57
2022/03/25 09:05:10;;;;;;;22.98;14.73;;;16.60;99.90;;;;;;6263766;22;20815;-57
2022/03/25 09:07:37;;;;;;;24.73;13.95;;;16.80;99.90;;;;;;6236432;22;20019;-56
2022/03/25 09:10:14;;;;;;;20.67;14.57;;;16.90;99.90;;;;;;6263856;22;20552;-57
2022/03/25 09:12:40;;;;;;;22.13;13.93;;;16.60;99.90;;;;;;6263572;22;20454;-57
2022/03/25 09:15:07;;;;;;;24.10;14.73;;;16.60;99.90;;;;;;6236772;22;20031;-57
2022/03/25 09:17:33;;;;;;;20.88;12.80;;;16.90;99.90;;;;;;6262764;22;20016;-58
2022/03/25 09:20:03;;;;;;;22.27;15.10;;;17.20;99.90;;;;;;6262657;22;20023;-57
2022/03/25 09:22:33;;;;;;;25.80;13.13;;;17.10;99.10;;;;;;6235105;22;20093;-57
2022/03/25 09:24:59;;;;;;;18.13;12.35;;;16.80;99.40;;;;;;6261678;22;20024;-57
2022/03/25 09:27:25;;;;;;;24.13;12.57;;;17.10;99.40;;;;;;6236518;22;20022;-57
2022/03/25 09:29:51;;;;;;;23.02;12.43;;;17.90;98.60;;;;;;6263220;22;20464;-57
2022/03/25 09:32:17;;;;;;;24.38;14.18;;;17.90;95.90;;;;;;6262968;22;20050;-57
2022/03/25 09:37:27;;;;;;;;;;;18.00;95.90;;;;;;6262911;22;20023;-57
2022/03/25 09:39:52;;;;;;;24.58;12.82;;;18.80;93.00;;;;;;6260039;22;19988;-57
2022/03/25 09:42:19;;;;;;;21.73;13.93;;;19.10;95.50;;;;;;6262950;22;20109;-57
2022/03/25 09:44:46;;;;;;;20.40;12.93;;;19.50;94.90;;;;;;6261842;22;20702;-57
2022/03/25 09:47:16;;;;;;;22.58;14.38;;;19.80;94.80;;;;;;6262493;22;20314;-57
2022/03/25 09:49:42;;;;;;;22.00;13.98;;;19.50;93.00;;;;;;6262484;22;20055;-65
2022/03/25 09:52:08;;;;;;;26.52;14.80;;;19.80;91.90;;;;;;6261891;22;20063;-66
2022/03/25 09:54:35;;;;;;;26.67;15.70;;;19.50;94.40;;;;;;6263210;22;20027;-70
2022/03/25 09:57:01;;;;;;;21.77;14.32;;;19.80;91.40;;;;;;6262541;22;20435;-63
2022/03/25 09:59:27;;;;;;;22.40;13.00;;;19.80;93.60;;;;;;6236178;22;20454;-59
2022/03/25 10:01:53;;;;;;;21.13;14.10;;;20.30;93.00;;;;;;6261902;22;20749;-62
2022/03/25 10:04:39;;;;;;;19.45;13.60;;;20.60;92.50;;;;;;6261996;22;20026;-63
2022/03/25 10:07:28;;;;;;;23.63;15.23;;;20.70;89.90;;;;;;6235319;22;20101;-57
2022/03/25 10:10:10;;;;;;;20.45;12.65;;;20.30;88.30;;;;;;6260801;22;20897;-58
2022/03/25 10:12:37;;;;;;;20.92;13.73;;;20.90;87.10;;;;;;6261812;22;20466;-58
2022/03/25 10:15:15;;;;;;;20.23;13.05;;;20.80;88.00;;;;;;6263858;22;20448;-61
2022/03/25 10:17:58;;;;;;;22.75;14.50;;;21.20;89.10;;;;;;6262985;22;20462;-59
2022/03/25 10:20:35;;;;;;;24.58;13.82;;;21.20;86.40;;;;;;6236256;22;20227;-57
2022/03/25 10:23:01;;;;;;;22.48;13.05;;;21.30;86.50;;;;;;6264674;22;20015;-58
2022/03/25 10:25:56;;;;;;;21.88;13.13;;;21.70;89.70;;;;;;6231166;22;20404;-57
2022/03/25 10:28:30;;;;;;;19.70;12.75;;;21.90;86.30;;;;;;6264442;22;20098;-57
2022/03/25 10:31:06;;;;;;;17.73;12.55;;;22.10;85.80;;;;;;6263640;22;20022;-58
2022/03/25 10:33:44;;;;;;;19.27;11.82;;;22.10;86.80;;;;;;6263918;22;20030;-58
2022/03/25 10:36:11;;;;;;;21.13;12.80;;;22.00;82.00;;;;;;6264203;22;20411;-70
2022/03/25 10:39:06;;;;;;;20.15;11.05;;;21.50;84.70;;;;;;6263804;22;20530;-69
2022/03/25 10:41:45;;;;;;;21.17;12.70;;;21.90;84.40;;;;;;6263704;22;20270;-58
2022/03/25 10:44:11;;;;;;;22.17;13.35;;;21.80;83.50;;;;;;6263274;22;20023;-58
2022/03/25 10:46:53;;;;;;;21.42;13.40;;;21.40;83.50;;;;;;6262747;22;20012;-57
2022/03/25 10:49:20;;;;;;;22.85;13.18;;;21.00;82.30;;;;;;6264380;22;20019;-58
2022/03/25 10:51:55;;;;;;;18.38;12.02;;;20.80;86.10;;;;;;6236545;22;20078;-57
2022/03/25 10:54:26;;;;;;;21.75;13.32;;;21.20;84.40;;;;;;6237559;22;20019;-57
2022/03/25 10:56:53;;;;;;;24.75;14.05;;;21.60;84.30;;;;;;6263524;22;20466;-57
2022/03/25 10:59:32;;;;;;;18.60;13.02;;;21.90;85.90;;;;;;6263185;22;20418;-57
2022/03/25 11:02:04;;;;;;;20.17;14.02;;;22.40;83.00;;;;;;6263415;22;20092;-57
2022/03/25 11:04:30;;;;;;;21.58;13.65;;;22.50;84.70;;;;;;6263497;22;20433;-58
2022/03/25 11:07:01;;;;;;;20.60;12.80;;;22.70;83.90;;;;;;6263572;22;20015;-57
2022/03/25 11:09:27;;;;;;;28.10;14.60;;;22.90;81.90;;;;;;6264766;22;20112;-57
2022/03/25 11:11:54;;;;;;;20.80;12.00;;;21.60;80.40;;;;;;6236667;22;20020;-58
2022/03/25 11:14:21;;;;;;;19.25;11.30;;;21.10;83.30;;;;;;6262326;22;20030;-58
2022/03/25 11:16:58;;;;;;;19.75;12.27;;;22.10;83.80;;;;;;6263499;22;20628;-57
2022/03/25 11:19:24;;;;;;;21.80;13.70;;;22.10;79.70;;;;;;6262163;22;20019;-57
2022/03/25 11:21:54;;;;;;;20.00;13.38;;;22.50;82.70;;;;;;6232899;22;20019;-57
2022/03/25 11:24:47;;;;;;;18.63;11.95;;;22.90;82.20;;;;;;6263213;22;20107;-57
2022/03/25 11:27:20;;;;;;;18.02;11.45;;;23.30;80.00;;;;;;6235627;22;20016;-57
2022/03/25 11:29:50;;;;;;;21.70;13.73;;;23.10;80.10;;;;;;6235840;22;20446;-58
2022/03/25 11:32:16;;;;;;;20.27;13.95;;;23.70;80.40;;;;;;6263200;22;20020;-58
2022/03/25 11:35:07;;;;;;;17.50;12.70;;;24.00;79.40;;;;;;6264119;22;20026;-57
2022/03/25 11:37:34;;;;;;;19.55;13.38;;;24.20;79.40;;;;;;6264445;22;20118;-58
2022/03/25 11:40:16;;;;;;;21.65;15.18;;;24.00;80.10;;;;;;6235925;22;20059;-57
2022/03/25 11:42:48;;;;;;;21.63;15.30;;;24.10;77.40;;;;;;6264056;22;20478;-57
2022/03/25 11:45:24;;;;;;;22.20;14.35;;;24.50;78.20;;;;;;6263873;22;20026;-57
2022/03/25 11:47:59;;;;;;;21.50;14.02;;;24.70;77.00;;;;;;6263621;22;20488;-58
2022/03/25 11:50:28;;;;;;;22.65;14.30;;;25.00;75.40;;;;;;6264703;22;20409;-58
2022/03/25 11:52:54;;;;;;;20.40;13.73;;;24.40;77.30;;;;;;6263777;22;20405;-58
2022/03/25 11:55:19;;;;;;;21.08;14.27;;;24.40;78.80;;;;;;6263997;22;20027;-58
2022/03/25 11:57:46;;;;;;;24.08;15.57;;;24.70;76.90;;;;;;6263000;22;20347;-58
2022/03/25 12:00:27;;;;;;;23.45;15.73;;;24.30;74.10;;;;;;6263441;22;20039;-58
2022/03/25 12:03:06;;;;;;;24.52;15.85;;;24.20;75.10;;;;;;6263592;22;20042;-58
2022/03/25 12:05:35;;;;;;;21.83;15.30;;;22.50;74.10;;;;;;6235261;22;20023;-57
2022/03/25 12:08:29;;;;;;;21.83;15.52;;;23.20;77.00;;;;;;6263200;22;20409;-57
2022/03/25 12:10:56;;;;;;;29.63;17.10;;;23.80;73.70;;;;;;6263542;22;20016;-58
2022/03/25 12:13:23;;;;;;;24.55;15.80;;;23.10;74.70;;;;;;6263863;22;20249;-58
2022/03/25 12:15:52;;;;;;;24.02;15.52;;;22.40;73.10;;;;;;6263288;22;20492;-57
2022/03/25 12:18:46;;;;;;;22.15;13.65;;;23.20;76.10;;;;;;6263878;22;20049;-58
2022/03/25 12:21:20;;;;;;;21.08;15.30;;;24.00;72.90;;;;;;6263086;22;20020;-57
2022/03/25 12:24:00;;;;;;;21.73;14.82;;;23.20;70.90;;;;;;6263472;22;20073;-57
2022/03/25 12:26:29;;;;;;;21.38;14.65;;;23.00;73.80;;;;;;6263170;22;20066;-58
2022/03/25 12:28:55;;;;;;;24.42;15.15;;;22.90;72.70;;;;;;6263978;22;20177;-58
2022/03/25 12:31:21;;;;;;;19.85;12.85;;;23.40;72.50;;;;;;6263295;22;20629;-57
2022/03/25 12:33:55;;;;;;;22.27;14.15;;;24.20;73.60;;;;;;6263743;22;20101;-59
2022/03/25 12:36:23;;;;;;;23.03;12.83;;;23.60;68.20;;;;;;6263487;22;20023;-58
2022/03/25 12:38:54;;;;;;;17.83;11.00;;;23.80;71.20;;;;;;6264306;22;20026;-58
2022/03/25 12:41:28;;;;;;;16.75;11.52;;;26.00;68.70;;;;;;6263802;22;20016;-71